createdAt,value
2022-12-19T00:01:51.963Z,4.45
2022-12-19T00:04:37.244Z,3.28
2022-12-19T00:07:22.858Z,5.40
2022-12-19T00:10:08.965Z,7.18
2022-12-19T00:12:54.145Z,3.58
2022-12-19T00:15:39.511Z,4.05
2022-12-19T00:18:24.988Z,1.45
2022-12-19T00:21:12.933Z,3.80
2022-12-19T00:23:58.778Z,4.38
2022-12-19T00:26:44.267Z,5.90
2022-12-19T00:29:29.689Z,2.78
2022-12-19T00:32:16.144Z,6.53
2022-12-19T00:35:02.146Z,5.82
2022-12-19T00:37:49.595Z,7.78
2022-12-19T00:40:35.203Z,3.00
2022-12-19T00:43:20.787Z,2.78
2022-12-19T00:46:09.083Z,4.85
2022-12-19T00:48:55.355Z,4.40
2022-12-19T00:51:40.780Z,7.72
2022-12-19T00:54:26.531Z,3.17
2022-12-19T00:57:12.123Z,4.80
2022-12-19T00:59:57.669Z,6.30
2022-12-19T01:02:43.131Z,3.53
2022-12-19T01:05:28.814Z,4.70
2022-12-19T01:08:14.919Z,7.13
2022-12-19T01:11:03.094Z,8.20
2022-12-19T01:13:48.663Z,5.35
2022-12-19T01:16:34.043Z,5.90
2022-12-19T01:19:20.457Z,7.72
2022-12-19T01:22:05.581Z,4.10
2022-12-19T01:24:51.293Z,7.38
2022-12-19T01:27:36.995Z,3.65
2022-12-19T01:30:22.553Z,4.95
2022-12-19T01:33:13.038Z,7.10
2022-12-19T01:35:58.672Z,8.38
2022-12-19T01:38:44.131Z,7.93
2022-12-19T01:41:29.535Z,8.38
2022-12-19T01:44:15.310Z,4.63
2022-12-19T01:47:01.291Z,8.15
2022-12-19T01:49:46.686Z,9.32
2022-12-19T01:52:32.643Z,6.38
2022-12-19T01:55:18.096Z,6.25
2022-12-19T01:58:04.076Z,6.70
2022-12-19T02:00:49.494Z,8.35
2022-12-19T02:03:38.560Z,9.30
2022-12-19T02:06:25.221Z,3.97
2022-12-19T02:09:11.606Z,7.88
2022-12-19T02:11:59.847Z,5.90
2022-12-19T02:14:45.392Z,9.30
2022-12-19T02:17:56.902Z,7.18
2022-12-19T02:20:54.404Z,5.97
2022-12-19T02:23:51.636Z,12.75
2022-12-19T02:27:12.114Z,11.35
2022-12-19T02:30:11.286Z,7.82
2022-12-19T02:33:02.461Z,8.15
2022-12-19T02:35:57.036Z,9.73
2022-12-19T02:38:53.799Z,9.45
2022-12-19T02:41:51.897Z,11.60
2022-12-19T02:44:45.706Z,13.68
2022-12-19T02:47:32.804Z,14.02
2022-12-19T02:50:18.616Z,7.72
2022-12-19T02:53:03.807Z,13.95
2022-12-19T02:55:49.278Z,9.10
2022-12-19T02:59:01.836Z,10.25
2022-12-19T03:01:51.155Z,12.07
2022-12-19T03:05:08.421Z,8.68
2022-12-19T03:07:57.445Z,5.07
2022-12-19T03:10:49.774Z,13.43
2022-12-19T03:13:46.408Z,13.23
2022-12-19T03:16:36.219Z,11.63
2022-12-19T03:19:22.550Z,12.40
2022-12-19T03:22:08.634Z,13.90
2022-12-19T03:24:54.198Z,11.70
2022-12-19T03:27:40.604Z,11.00
2022-12-19T03:30:26.052Z,13.75
2022-12-19T03:33:13.675Z,16.67
2022-12-19T03:36:03.856Z,11.10
2022-12-19T03:38:49.998Z,14.10
2022-12-19T03:41:55.355Z,14.05
2022-12-19T03:44:42.980Z,15.85
2022-12-19T03:47:38.804Z,14.60
2022-12-19T03:50:27.745Z,16.92
2022-12-19T03:53:32.249Z,14.05
2022-12-19T03:56:20.932Z,18.08
2022-12-19T03:59:35.958Z,11.98
2022-12-19T04:02:23.310Z,14.80
2022-12-19T04:05:13.956Z,19.48
2022-12-19T04:08:06.262Z,13.35
2022-12-19T04:10:55.653Z,16.63
2022-12-19T04:13:56.791Z,9.30
2022-12-19T04:17:04.195Z,16.67
2022-12-19T04:20:11.313Z,14.55
2022-12-19T04:23:26.004Z,10.70
2022-12-19T04:26:13.667Z,12.20
2022-12-19T04:29:01.893Z,9.70
2022-12-19T04:31:48.687Z,12.30
2022-12-19T04:34:36.800Z,16.45
2022-12-19T04:37:24.480Z,6.82
2022-12-19T04:40:10.958Z,9.50
2022-12-19T04:42:56.103Z,19.27
2022-12-19T04:45:42.219Z,12.07
2022-12-19T04:48:28.380Z,13.02
2022-12-19T04:51:13.912Z,9.48
2022-12-19T04:53:59.257Z,7.72
2022-12-19T04:56:44.762Z,13.55
2022-12-19T04:59:30.225Z,10.00
2022-12-19T05:02:15.964Z,15.23
2022-12-19T05:05:01.331Z,4.20
2022-12-19T05:07:47.143Z,6.35
2022-12-19T05:10:32.750Z,8.25
2022-12-19T05:13:17.920Z,7.47
2022-12-19T05:16:06.357Z,9.10
2022-12-19T05:18:53.914Z,10.13
2022-12-19T05:21:40.723Z,9.15
2022-12-19T05:24:26.007Z,9.40
2022-12-19T05:27:11.631Z,6.78
2022-12-19T05:29:57.123Z,6.95
2022-12-19T05:32:42.789Z,9.43
2022-12-19T05:35:28.396Z,10.93
2022-12-19T05:38:13.828Z,5.57
2022-12-19T05:40:59.741Z,5.07
2022-12-19T05:43:46.636Z,8.38
2022-12-19T05:46:31.873Z,7.32
2022-12-19T05:49:17.237Z,6.55
2022-12-19T05:52:02.825Z,8.27
2022-12-19T05:54:48.230Z,9.73
2022-12-19T05:57:34.111Z,6.07
2022-12-19T06:00:19.981Z,12.63
2022-12-19T06:03:05.525Z,6.85
2022-12-19T06:05:50.879Z,7.20
2022-12-19T06:08:37.090Z,8.60
2022-12-19T06:11:24.528Z,5.60
2022-12-19T06:14:10.032Z,5.22
2022-12-19T06:16:55.699Z,5.28
2022-12-19T06:19:41.783Z,5.90
2022-12-19T06:22:27.034Z,5.22
2022-12-19T06:25:15.876Z,5.22
2022-12-19T06:28:01.181Z,11.60
2022-12-19T06:30:47.000Z,7.32
2022-12-19T06:33:33.924Z,11.90
2022-12-19T06:36:20.773Z,11.05
2022-12-19T06:39:06.190Z,8.32
2022-12-19T06:42:10.225Z,10.60
2022-12-19T06:44:56.535Z,10.57
2022-12-19T06:47:42.130Z,7.93
2022-12-19T06:50:27.885Z,13.88
2022-12-19T06:53:13.785Z,8.70
2022-12-19T06:56:00.340Z,14.18
2022-12-19T06:58:45.922Z,6.60
2022-12-19T07:01:53.381Z,9.80
2022-12-19T07:04:47.561Z,14.05
2022-12-19T07:10:17.969Z,10.85
2022-12-19T07:13:04.568Z,10.70
2022-12-19T07:15:51.341Z,9.35
2022-12-19T07:18:39.232Z,6.50
2022-12-19T07:21:24.522Z,7.13
2022-12-19T07:24:12.771Z,6.88
2022-12-19T07:26:58.524Z,4.82
2022-12-19T07:29:43.798Z,10.40
2022-12-19T07:32:29.175Z,3.08
2022-12-19T07:35:14.875Z,6.88
2022-12-19T07:38:05.205Z,5.03
2022-12-19T07:40:50.471Z,6.40
2022-12-19T07:43:37.029Z,6.38
2022-12-19T07:46:22.833Z,8.25
2022-12-19T07:49:09.387Z,8.75
2022-12-19T07:51:55.042Z,9.23
2022-12-19T07:54:41.023Z,5.20
2022-12-19T07:57:26.320Z,4.30
2022-12-19T08:00:12.216Z,4.43
2022-12-19T08:03:04.480Z,3.70
2022-12-19T08:05:50.313Z,6.68
2022-12-19T08:08:38.401Z,7.50
2022-12-19T08:11:27.629Z,5.35
2022-12-19T08:14:13.416Z,11.40
2022-12-19T08:20:09.546Z,7.88
2022-12-19T08:22:56.542Z,11.02
2022-12-19T08:25:45.523Z,8.18
2022-12-19T08:28:35.899Z,9.85
2022-12-19T08:31:25.340Z,9.85
2022-12-19T08:34:11.226Z,10.23
2022-12-19T08:36:56.901Z,7.95
2022-12-19T08:39:42.516Z,7.32
2022-12-19T08:42:28.103Z,13.43
2022-12-19T08:45:13.519Z,14.93
2022-12-19T08:47:59.031Z,14.48
2022-12-19T08:51:06.114Z,8.93
2022-12-19T08:53:51.642Z,13.88
2022-12-19T08:56:37.354Z,6.82
2022-12-19T08:59:30.772Z,11.07
2022-12-19T09:02:17.252Z,16.80
2022-12-19T09:06:03.649Z,10.52
2022-12-19T09:08:08.903Z,11.73
2022-12-19T09:10:59.839Z,14.70
2022-12-19T09:13:45.783Z,9.65
2022-12-19T09:16:31.345Z,15.00
2022-12-19T09:19:16.922Z,11.55
2022-12-19T09:22:02.225Z,5.97
2022-12-19T09:24:47.652Z,8.40
2022-12-19T09:27:53.732Z,8.93
2022-12-19T09:30:39.240Z,6.80
2022-12-19T09:33:25.992Z,14.70
2022-12-19T09:36:17.626Z,9.02
2022-12-19T09:39:03.053Z,7.60
2022-12-19T09:42:11.489Z,6.15
2022-12-19T09:45:18.047Z,7.18
2022-12-19T09:48:24.123Z,8.85
2022-12-19T09:51:36.013Z,7.25
2022-12-19T09:54:31.688Z,10.15
2022-12-19T09:57:42.136Z,7.22
2022-12-19T10:00:35.493Z,3.92
2022-12-19T10:07:15.759Z,4.63
2022-12-19T10:12:14.069Z,7.65
2022-12-19T10:12:59.496Z,6.90
2022-12-19T10:16:00.222Z,5.82
2022-12-19T10:19:05.616Z,7.90
2022-12-19T10:22:16.879Z,7.13
2022-12-19T10:25:26.524Z,8.88
2022-12-19T10:28:11.828Z,8.70
2022-12-19T10:31:18.853Z,13.73
2022-12-19T10:34:32.942Z,8.27
2022-12-19T10:37:40.678Z,12.15
2022-12-19T10:40:37.420Z,8.85
2022-12-19T10:43:44.738Z,16.95
2022-12-19T10:46:33.471Z,14.68
2022-12-19T10:49:25.159Z,11.55
2022-12-19T10:52:12.414Z,15.82
2022-12-19T10:54:57.865Z,8.20
2022-12-19T10:57:44.399Z,9.18
2022-12-19T11:00:33.038Z,5.72
2022-12-19T11:03:23.153Z,10.32
2022-12-19T11:06:49.834Z,9.20
2022-12-19T11:09:41.935Z,6.00
2022-12-19T11:16:04.737Z,12.88
2022-12-19T11:21:22.016Z,6.32
2022-12-19T11:29:27.014Z,13.27
2022-12-19T11:29:38.749Z,7.88
2022-12-19T11:30:41.737Z,10.73
2022-12-19T11:30:48.177Z,7.28
2022-12-19T11:32:35.862Z,5.25
2022-12-19T11:35:24.936Z,10.02
2022-12-19T11:38:14.849Z,14.68
2022-12-19T11:41:03.864Z,11.52
2022-12-19T11:44:37.500Z,8.10
2022-12-19T11:47:41.365Z,7.72
2022-12-19T11:50:34.555Z,17.23
2022-12-19T11:56:21.930Z,17.85
2022-12-19T11:59:21.472Z,7.18
2022-12-19T12:02:22.937Z,14.35
2022-12-19T12:05:16.209Z,15.07
2022-12-19T12:11:00.409Z,8.95
2022-12-19T12:20:36.361Z,13.82
2022-12-19T12:24:58.865Z,15.60
2022-12-19T12:31:03.928Z,14.18
2022-12-19T12:31:21.385Z,16.15
2022-12-19T12:31:44.390Z,17.08
2022-12-19T12:31:51.724Z,12.93
2022-12-19T12:35:56.813Z,21.27
2022-12-19T12:39:03.571Z,16.60
2022-12-19T12:42:08.284Z,12.60
2022-12-19T12:44:57.033Z,11.65
2022-12-19T12:47:43.278Z,14.60
2022-12-19T12:50:28.789Z,18.08
2022-12-19T12:53:19.350Z,14.50
2022-12-19T12:56:08.488Z,11.55
2022-12-19T12:58:56.966Z,12.52
2022-12-19T13:01:42.628Z,9.52
2022-12-19T13:04:32.877Z,15.57
2022-12-19T13:07:41.894Z,10.55
2022-12-19T13:10:30.602Z,10.40
2022-12-19T13:13:19.861Z,10.85
2022-12-19T13:16:44.213Z,10.13
2022-12-19T13:19:33.123Z,6.68
2022-12-19T13:22:40.042Z,11.90
2022-12-19T13:25:35.503Z,12.15
2022-12-19T13:28:20.943Z,14.75
2022-12-19T13:31:18.539Z,12.23
2022-12-19T13:34:17.444Z,13.73
2022-12-19T13:39:56.172Z,20.65
2022-12-19T13:40:57.047Z,10.10
2022-12-19T13:43:48.940Z,14.50
2022-12-19T13:46:42.765Z,11.25
2022-12-19T13:49:34.691Z,14.35
2022-12-19T13:52:20.528Z,10.65
2022-12-19T13:55:14.239Z,8.02
2022-12-19T13:58:07.475Z,9.52
2022-12-19T14:00:56.751Z,13.15
2022-12-19T14:03:45.425Z,17.20
2022-12-19T14:06:39.650Z,10.55
2022-12-19T14:11:30.434Z,11.20
2022-12-19T14:13:53.260Z,17.15
2022-12-19T14:16:16.735Z,13.68
2022-12-19T14:19:02.169Z,11.23
2022-12-19T14:22:05.735Z,10.88
2022-12-19T14:25:44.158Z,10.02
2022-12-19T14:28:20.371Z,11.63
2022-12-19T14:31:16.803Z,16.45
2022-12-19T14:37:37.126Z,13.15
2022-12-19T14:41:07.188Z,10.20
2022-12-19T14:43:58.693Z,15.50
2022-12-19T14:52:51.708Z,16.90
2022-12-19T14:54:08.729Z,18.48
2022-12-19T14:55:05.618Z,9.82
2022-12-19T14:57:25.290Z,15.52
2022-12-19T15:01:08.960Z,14.30
2022-12-19T15:04:51.843Z,16.42
2022-12-19T15:07:21.060Z,15.88
2022-12-19T15:11:05.665Z,15.23
2022-12-19T15:14:51.003Z,8.43
2022-12-19T15:16:45.747Z,13.82
2022-12-19T15:19:31.437Z,8.73
2022-12-19T15:22:17.768Z,13.82
2022-12-19T15:25:03.371Z,8.45
2022-12-19T15:27:49.103Z,8.45
2022-12-19T15:30:38.188Z,8.85
2022-12-19T15:33:23.805Z,6.53
2022-12-19T15:36:09.938Z,13.48
2022-12-19T15:38:55.450Z,11.48
2022-12-19T15:41:41.990Z,8.50
2022-12-19T15:44:37.006Z,6.53
2022-12-19T15:47:36.506Z,11.43
2022-12-19T15:50:29.894Z,9.00
2022-12-19T15:53:40.405Z,12.63
2022-12-19T15:56:33.724Z,17.63
2022-12-19T15:59:37.218Z,12.15
2022-12-19T16:02:27.998Z,11.57
2022-12-19T16:05:24.936Z,12.90
2022-12-19T16:08:16.167Z,14.32
2022-12-19T16:11:02.349Z,17.52
2022-12-19T16:13:55.559Z,19.73
2022-12-19T16:16:41.314Z,15.18
2022-12-19T16:19:29.175Z,21.48
2022-12-19T16:22:19.178Z,14.60
2022-12-19T16:25:05.162Z,15.88
2022-12-19T16:27:59.421Z,21.80
2022-12-19T16:30:45.111Z,13.88
2022-12-19T16:33:31.285Z,13.10
2022-12-19T16:36:16.783Z,22.35
2022-12-19T16:39:02.453Z,17.80
2022-12-19T16:41:48.236Z,17.98
2022-12-19T16:44:35.953Z,20.30
2022-12-19T16:47:21.733Z,26.15
2022-12-19T16:50:42.804Z,15.68
2022-12-19T16:53:29.457Z,25.33
2022-12-19T16:56:37.054Z,18.23
2022-12-19T16:59:35.720Z,22.27
2022-12-19T17:02:58.810Z,20.83
2022-12-19T17:05:44.887Z,29.02
2022-12-19T17:08:31.966Z,13.85
2022-12-19T17:11:24.635Z,17.23
2022-12-19T17:14:19.345Z,21.60
2022-12-19T17:17:05.640Z,15.93
2022-12-19T17:19:51.657Z,25.33
2022-12-19T17:22:39.273Z,21.08
2022-12-19T17:25:28.697Z,24.30
2022-12-19T17:28:15.748Z,28.63
2022-12-19T17:31:08.103Z,22.92
2022-12-19T17:33:58.458Z,23.60
2022-12-19T17:36:45.369Z,20.92
2022-12-19T17:39:33.707Z,19.55
2022-12-19T17:42:22.967Z,16.45
2022-12-19T17:45:10.123Z,17.02
2022-12-19T17:48:02.865Z,21.60
2022-12-19T17:50:48.705Z,21.38
2022-12-19T17:53:34.317Z,24.90
2022-12-19T17:56:20.906Z,22.05
2022-12-19T17:59:06.248Z,19.80
2022-12-19T18:01:52.322Z,19.70
2022-12-19T18:04:37.907Z,27.52
2022-12-19T18:07:23.620Z,19.30
2022-12-19T18:10:17.314Z,21.15
2022-12-19T18:13:04.391Z,14.50
2022-12-19T18:15:50.495Z,18.50
2022-12-19T18:18:36.549Z,17.27
2022-12-19T18:21:24.732Z,17.08
2022-12-19T18:24:11.338Z,20.52
2022-12-19T18:26:56.878Z,13.80
2022-12-19T18:29:42.506Z,21.58
2022-12-19T18:32:28.043Z,20.48
2022-12-19T18:35:19.754Z,17.73
2022-12-19T18:38:08.653Z,27.70
2022-12-19T18:40:54.477Z,19.10
2022-12-19T18:43:39.738Z,19.10
2022-12-19T18:46:28.207Z,20.98
2022-12-19T18:49:16.806Z,22.80
2022-12-19T18:52:02.399Z,18.90
2022-12-19T18:54:48.063Z,17.98
2022-12-19T18:57:33.499Z,16.85
2022-12-19T19:00:22.261Z,22.95
2022-12-19T19:03:21.858Z,16.23
2022-12-19T19:06:22.744Z,23.27
2022-12-19T19:09:16.130Z,28.77
2022-12-19T19:12:01.820Z,21.50
2022-12-19T19:14:47.611Z,18.40
2022-12-19T19:17:33.140Z,22.63
2022-12-19T19:20:19.495Z,21.77
2022-12-19T19:23:08.659Z,23.38
2022-12-19T19:25:53.908Z,22.73
2022-12-19T19:28:39.451Z,19.30
2022-12-19T19:31:27.493Z,17.92
2022-12-19T19:34:21.157Z,16.77
2022-12-19T19:37:09.182Z,17.52
2022-12-19T19:39:54.350Z,21.67
2022-12-19T19:42:39.983Z,22.55
2022-12-19T19:45:27.711Z,16.92
2022-12-19T19:48:12.971Z,22.52
2022-12-19T19:50:58.867Z,16.52
2022-12-19T19:53:44.661Z,20.88
2022-12-19T19:56:31.076Z,25.10
2022-12-19T19:59:16.672Z,17.67
2022-12-19T20:02:02.432Z,14.80
2022-12-19T20:04:48.877Z,34.45
2022-12-19T20:07:34.546Z,43.55
2022-12-19T20:10:20.085Z,17.98
2022-12-19T20:13:05.817Z,18.45
2022-12-19T20:15:51.787Z,18.02
2022-12-19T20:18:38.391Z,17.33
2022-12-19T20:21:25.092Z,19.35
2022-12-19T20:24:11.627Z,15.30
2022-12-19T20:26:58.312Z,19.05
2022-12-19T20:29:44.006Z,20.20
2022-12-19T20:32:30.607Z,16.83
2022-12-19T20:35:16.349Z,20.52
2022-12-19T20:38:01.799Z,21.85
2022-12-19T20:40:48.083Z,18.98
2022-12-19T20:43:34.403Z,20.02
2022-12-19T20:46:21.396Z,18.63
2022-12-19T20:49:07.521Z,22.92
2022-12-19T20:51:54.176Z,22.42
2022-12-19T20:54:40.717Z,25.83
2022-12-19T20:57:30.176Z,20.23
2022-12-19T21:00:20.205Z,21.67
2022-12-19T21:06:18.179Z,23.48
2022-12-19T21:09:09.724Z,17.58
2022-12-19T21:11:57.534Z,22.00
2022-12-19T21:14:45.227Z,17.85
2022-12-19T21:17:31.912Z,25.45
2022-12-19T21:20:18.500Z,18.08
2022-12-19T21:23:06.326Z,18.58
2022-12-19T21:25:53.582Z,23.55
2022-12-19T21:28:41.376Z,19.85
2022-12-19T21:31:31.532Z,14.70
2022-12-19T21:34:20.395Z,17.42
2022-12-19T21:37:06.793Z,16.60
2022-12-19T21:39:59.373Z,20.67
2022-12-19T21:42:50.211Z,17.10
2022-12-19T21:45:37.059Z,17.95
2022-12-19T21:48:24.507Z,19.30
2022-12-19T21:51:15.303Z,15.95
2022-12-19T21:54:08.661Z,15.20
2022-12-19T21:56:58.975Z,22.35
2022-12-19T21:59:52.204Z,21.33
2022-12-19T22:02:55.643Z,17.55
2022-12-19T22:05:49.174Z,13.07
2022-12-19T22:08:36.736Z,13.57
2022-12-19T22:11:22.433Z,20.77
2022-12-19T22:14:08.880Z,16.20
2022-12-19T22:16:54.899Z,13.73
2022-12-19T22:19:41.705Z,11.60
2022-12-19T22:22:27.241Z,10.98
2022-12-19T22:25:13.174Z,19.80
2022-12-19T22:27:59.364Z,22.48
2022-12-19T22:30:45.778Z,15.73
2022-12-19T22:33:31.732Z,15.85
2022-12-19T22:36:25.688Z,19.95
2022-12-19T22:39:17.477Z,14.38
2022-12-19T22:42:03.008Z,16.25
2022-12-19T22:44:49.702Z,15.38
2022-12-19T22:47:35.733Z,20.63
2022-12-19T22:50:21.245Z,19.75
2022-12-19T22:53:12.422Z,16.92
2022-12-19T22:56:06.317Z,13.80
2022-12-19T23:01:41.811Z,19.80
2022-12-19T23:04:27.884Z,17.25
2022-12-19T23:07:13.135Z,10.80
2022-12-19T23:09:58.865Z,15.48
2022-12-19T23:12:44.639Z,16.90
2022-12-19T23:15:30.297Z,16.75
2022-12-19T23:18:16.265Z,13.68
2022-12-19T23:21:09.333Z,16.63
2022-12-19T23:23:55.991Z,15.65
2022-12-19T23:26:41.870Z,17.25
2022-12-19T23:29:27.600Z,17.70
2022-12-19T23:32:13.123Z,18.40
2022-12-19T23:34:58.749Z,17.20
2022-12-19T23:37:45.000Z,17.80
2022-12-19T23:40:30.290Z,15.80
2022-12-19T23:43:15.844Z,17.85
2022-12-19T23:46:24.757Z,16.70
2022-12-19T23:49:10.485Z,17.55
2022-12-19T23:51:56.041Z,20.10
2022-12-19T23:54:41.706Z,16.90
2022-12-19T23:57:27.093Z,16.25
